Terminal Aerodrome Forecast
Issued by NWS Detroit/Pontiac, MI

Home | Current Version | Previous Version | Text Only | Print | Product List | Glossary On
Versions: 1 2 3 4 5 6 7 8 9 10 11 12 13 14 15 16 17 18 19 20 21 22 23 24
000
FTUS43 KDTX 252102 AAA
TAFDTW
TAF AMD
KDTW 252102Z 2521/2624 14008KT P6SM BKN250
     FM260200 10007KT P6SM SCT090 BKN150
     FM260800 12005KT 6SM BR BKN070
     FM261300 14010KT P6SM SCT090 BKN150
     FM261700 16014G24KT P6SM SCT150=

USA.gov is the U.S. government's official web portal to all federal, state and local government web resources and services.